createdAt,value
2022-10-09T00:01:03.928Z,99055.94
2022-10-09T00:02:06.938Z,99061.47
2022-10-09T00:03:11.062Z,99056.22
2022-10-09T00:04:14.129Z,99060.75
2022-10-09T00:05:18.618Z,99063.66
2022-10-09T00:06:23.488Z,99068.06
2022-10-09T00:07:27.560Z,99067.50
2022-10-09T00:08:30.631Z,99072.88
2022-10-09T00:09:34.631Z,99079.06
2022-10-09T00:10:42.968Z,99073.28
2022-10-09T00:11:47.209Z,99081.41
2022-10-09T00:12:50.816Z,99070.34
2022-10-09T00:13:55.640Z,99079.31
2022-10-09T00:14:58.682Z,99077.78
2022-10-09T00:16:05.391Z,99073.50
2022-10-09T00:17:08.488Z,99078.19
2022-10-09T00:18:14.257Z,99080.94
2022-10-09T00:19:17.349Z,99079.41
2022-10-09T00:20:22.200Z,99081.31
2022-10-09T00:21:26.852Z,99085.03
2022-10-09T00:22:30.872Z,99080.88
2022-10-09T00:23:33.960Z,99083.78
2022-10-09T00:24:38.168Z,99084.75
2022-10-09T00:27:25.137Z,99093.81
2022-10-09T00:28:29.919Z,99091.44
2022-10-09T00:29:34.013Z,99088.97
2022-10-09T00:30:39.890Z,99090.78
2022-10-09T00:31:43.907Z,99085.66
2022-10-09T00:32:47.054Z,99086.59
2022-10-09T00:33:51.386Z,99088.41
2022-10-09T00:34:54.327Z,99088.41
2022-10-09T00:35:58.881Z,99090.06
2022-10-09T00:37:02.336Z,99091.84
2022-10-09T00:38:06.537Z,99096.38
2022-10-09T00:39:09.509Z,99096.53
2022-10-09T00:40:13.772Z,99099.25
2022-10-09T00:41:18.806Z,99098.44
2022-10-09T00:42:22.926Z,99099.41
2022-10-09T00:43:42.705Z,99099.41
2022-10-09T00:44:53.049Z,99099.53
2022-10-09T00:45:56.644Z,99101.31
2022-10-09T00:47:01.507Z,99102.97
2022-10-09T00:48:07.594Z,99102.97
2022-10-09T00:49:18.474Z,99109.03
2022-10-09T00:50:23.677Z,99101.19
2022-10-09T00:51:27.678Z,99107.38
2022-10-09T00:52:31.041Z,99114.41
2022-10-09T00:53:35.146Z,99111.78
2022-10-09T00:54:41.706Z,99113.59
2022-10-09T00:55:45.935Z,99106.66
2022-10-09T00:56:50.552Z,99111.06
2022-10-09T00:57:54.664Z,99112.03
2022-10-09T00:59:00.318Z,99111.34
2022-10-09T01:00:06.835Z,99108.16
2022-10-09T01:01:10.987Z,99112.69
2022-10-09T01:02:13.990Z,99113.78
2022-10-09T01:03:18.298Z,99110.47
2022-10-09T01:04:21.259Z,99114.97
2022-10-09T01:05:28.459Z,99120.47
2022-10-09T01:06:43.575Z,99114.53
2022-10-09T01:07:51.486Z,99112.25
2022-10-09T01:09:00.738Z,99111.72
2022-10-09T01:10:14.260Z,99114.56
2022-10-09T01:11:23.088Z,99119.22
2022-10-09T01:12:32.849Z,99119.63
2022-10-09T01:13:39.798Z,99120.00
2022-10-09T01:14:50.947Z,99122.84
2022-10-09T01:15:56.326Z,99112.66
2022-10-09T01:17:09.556Z,99121.44
2022-10-09T01:18:18.826Z,99122.53
2022-10-09T01:19:43.265Z,99121.72
2022-10-09T01:20:49.466Z,99120.28
2022-10-09T01:22:01.424Z,99120.44
2022-10-09T01:23:45.496Z,99114.47
2022-10-09T01:24:54.353Z,99120.06
2022-10-09T01:26:06.540Z,99121.28
2022-10-09T01:27:16.368Z,99120.72
2022-10-09T01:28:20.154Z,99117.50
2022-10-09T01:29:26.235Z,99123.81
2022-10-09T01:30:32.291Z,99123.09
2022-10-09T01:31:39.668Z,99119.78
2022-10-09T01:32:44.745Z,99126.94
2022-10-09T01:33:49.337Z,99118.38
2022-10-09T01:34:52.751Z,99116.72
2022-10-09T01:35:56.928Z,99116.13
2022-10-09T01:36:59.911Z,99117.22
2022-10-09T01:38:04.398Z,99126.25
2022-10-09T01:39:09.456Z,99119.59
2022-10-09T01:40:16.187Z,99126.13
2022-10-09T01:41:22.429Z,99127.47
2022-10-09T01:42:29.315Z,99131.25
2022-10-09T01:43:32.332Z,99134.22
2022-10-09T01:44:36.887Z,99139.72
2022-10-09T01:45:41.406Z,99138.16
2022-10-09T01:46:45.609Z,99141.13
2022-10-09T01:47:48.606Z,99138.78
2022-10-09T01:48:59.276Z,99144.09
2022-10-09T01:50:06.319Z,99142.56
2022-10-09T01:51:10.612Z,99143.63
2022-10-09T01:52:21.832Z,99144.72
2022-10-09T01:53:26.394Z,99146.72
2022-10-09T01:54:34.624Z,99145.19
2022-10-09T01:55:44.191Z,99154.81
2022-10-09T01:56:48.782Z,99150.75
2022-10-09T01:57:57.707Z,99159.56
2022-10-09T01:59:04.173Z,99158.00
2022-10-09T02:00:11.147Z,99162.63
2022-10-09T02:01:18.471Z,99161.19
2022-10-09T02:02:23.092Z,99167.59
2022-10-09T02:03:27.492Z,99167.13
2022-10-09T02:04:32.896Z,99153.56
2022-10-09T02:05:36.552Z,99164.34
2022-10-09T02:06:41.754Z,99162.91
2022-10-09T02:07:44.764Z,99168.47
2022-10-09T02:08:51.241Z,99166.22
2022-10-09T02:09:54.776Z,99183.88
2022-10-09T02:11:00.178Z,99174.47
2022-10-09T02:12:07.207Z,99180.44
2022-10-09T02:13:14.125Z,99181.16
2022-10-09T02:14:17.365Z,99179.28
2022-10-09T02:15:22.766Z,99174.50
2022-10-09T02:16:37.214Z,99184.59
2022-10-09T02:17:46.991Z,99186.78
2022-10-09T02:18:55.176Z,99182.91
2022-10-09T02:20:03.269Z,99181.69
2022-10-09T02:21:11.178Z,99181.25
2022-10-09T02:22:17.379Z,99178.53
2022-10-09T02:23:20.624Z,99183.53
2022-10-09T02:24:25.513Z,99176.63
2022-10-09T02:25:29.184Z,99182.91
2022-10-09T02:26:33.699Z,99189.09
2022-10-09T02:27:36.855Z,99191.69
2022-10-09T02:28:45.847Z,99190.88
2022-10-09T02:29:49.593Z,99195.34
2022-10-09T02:30:58.786Z,99188.34
2022-10-09T02:32:01.915Z,99197.16
2022-10-09T02:33:06.806Z,99198.69
2022-10-09T02:34:11.008Z,99202.13
2022-10-09T02:35:15.011Z,99198.56
2022-10-09T02:36:18.075Z,99203.81
2022-10-09T02:37:22.287Z,99202.97
2022-10-09T02:38:25.291Z,99198.69
2022-10-09T02:39:29.277Z,99202.97
2022-10-09T02:40:32.285Z,99200.44
2022-10-09T02:41:37.054Z,99214.38
2022-10-09T02:42:40.038Z,99209.16
2022-10-09T02:43:45.456Z,99214.38
2022-10-09T02:44:48.500Z,99211.84
2022-10-09T02:45:52.915Z,99212.94
2022-10-09T02:46:55.842Z,99221.72
2022-10-09T02:47:59.957Z,99223.59
2022-10-09T02:49:03.113Z,99224.53
2022-10-09T02:50:08.785Z,99219.44
2022-10-09T02:51:11.840Z,99227.47
2022-10-09T02:52:15.906Z,99216.41
2022-10-09T02:53:18.909Z,99221.88
2022-10-09T02:54:23.012Z,99219.59
2022-10-09T02:55:25.975Z,99222.56
2022-10-09T02:56:30.293Z,99229.88
2022-10-09T02:57:33.491Z,99226.09
2022-10-09T02:58:39.447Z,99225.47
2022-10-09T02:59:44.047Z,99224.97
2022-10-09T03:00:52.154Z,99229.56
2022-10-09T03:01:56.183Z,99235.25
2022-10-09T03:03:01.356Z,99233.78
2022-10-09T03:04:04.835Z,99242.81
2022-10-09T03:05:09.581Z,99236.22
2022-10-09T03:06:14.217Z,99240.94
2022-10-09T03:07:18.215Z,99231.69
2022-10-09T03:08:21.349Z,99238.06
2022-10-09T03:09:28.234Z,99237.44
2022-10-09T03:10:34.499Z,99242.16
2022-10-09T03:11:38.503Z,99249.47
2022-10-09T03:12:41.575Z,99244.59
2022-10-09T03:13:46.195Z,99244.81
2022-10-09T03:14:50.562Z,99245.13
2022-10-09T03:15:55.228Z,99241.78
2022-10-09T03:16:58.445Z,99245.47
2022-10-09T03:18:02.786Z,99238.66
2022-10-09T03:19:05.785Z,99244.75
2022-10-09T03:20:11.091Z,99247.34
2022-10-09T03:21:15.666Z,99244.84
2022-10-09T03:22:19.886Z,99253.59
2022-10-09T03:23:22.985Z,99248.38
2022-10-09T03:24:27.236Z,99255.25
2022-10-09T03:25:30.614Z,99246.84
2022-10-09T03:26:34.664Z,99245.25
2022-10-09T03:27:37.706Z,99258.41
2022-10-09T03:28:43.578Z,99249.00
2022-10-09T03:29:46.547Z,99254.47
2022-10-09T03:30:52.587Z,99252.06
2022-10-09T03:31:55.963Z,99256.56
2022-10-09T03:33:00.040Z,99260.28
2022-10-09T03:34:02.917Z,99262.19
2022-10-09T03:35:07.377Z,99262.38
2022-10-09T03:36:10.993Z,99264.28
2022-10-09T03:37:15.241Z,99260.91
2022-10-09T03:38:18.396Z,99262.69
2022-10-09T03:39:22.587Z,99264.47
2022-10-09T03:40:25.755Z,99260.91
2022-10-09T03:41:29.765Z,99261.66
2022-10-09T03:42:33.114Z,99262.38
2022-10-09T03:43:37.394Z,99263.09
2022-10-09T03:44:40.306Z,99263.84
2022-10-09T03:45:44.747Z,99264.69
2022-10-09T03:46:49.182Z,99266.97
2022-10-09T03:47:53.300Z,99271.13
2022-10-09T03:48:56.286Z,99274.34
2022-10-09T03:50:01.256Z,99269.84
2022-10-09T03:51:04.491Z,99269.53
2022-10-09T03:52:08.455Z,99278.00
2022-10-09T03:53:12.506Z,99272.53
2022-10-09T03:54:16.494Z,99275.66
2022-10-09T03:55:21.957Z,99275.47
2022-10-09T03:56:26.101Z,99269.09
2022-10-09T03:57:29.137Z,99270.56
2022-10-09T03:58:33.076Z,99284.19
2022-10-09T03:59:36.937Z,99269.28
2022-10-09T04:00:41.105Z,99279.59
2022-10-09T04:01:44.114Z,99279.47
2022-10-09T04:02:49.656Z,99275.94
2022-10-09T04:03:53.595Z,99283.03
2022-10-09T04:04:57.505Z,99286.47
2022-10-09T04:06:01.426Z,99285.63
2022-10-09T04:07:04.296Z,99286.59
2022-10-09T04:08:08.934Z,99283.16
2022-10-09T04:09:12.076Z,99279.81
2022-10-09T04:10:16.224Z,99285.00
2022-10-09T04:11:19.426Z,99293.78
2022-10-09T04:12:23.974Z,99286.91
2022-10-09T04:13:26.881Z,99282.66
2022-10-09T04:14:31.232Z,99288.69
2022-10-09T04:15:35.457Z,99296.50
2022-10-09T04:16:39.621Z,99287.84
2022-10-09T04:17:43.102Z,99291.41
2022-10-09T04:18:49.169Z,99294.84
2022-10-09T04:19:52.630Z,99296.63
2022-10-09T04:20:57.645Z,99298.28
2022-10-09T04:22:00.632Z,99287.75
2022-10-09T04:23:04.838Z,99297.22
2022-10-09T04:24:08.786Z,99297.13
2022-10-09T04:25:12.756Z,99297.84
2022-10-09T04:26:15.689Z,99291.69
2022-10-09T04:27:19.829Z,99299.38
2022-10-09T04:28:23.733Z,99298.47
2022-10-09T04:29:27.868Z,99297.53
2022-10-09T04:30:30.866Z,99300.00
2022-10-09T04:31:34.904Z,99291.25
2022-10-09T04:32:37.991Z,99302.63
2022-10-09T04:33:41.962Z,99299.19
2022-10-09T04:34:46.339Z,99300.00
2022-10-09T04:35:52.464Z,99299.19
2022-10-09T04:36:55.385Z,99302.63
2022-10-09T04:37:59.365Z,99303.56
2022-10-09T04:39:02.260Z,99298.34
2022-10-09T04:40:07.055Z,99301.91
2022-10-09T04:41:10.997Z,99299.31
2022-10-09T04:42:15.008Z,99310.44
2022-10-09T04:43:17.924Z,99310.31
2022-10-09T04:44:21.944Z,99309.41
2022-10-09T04:45:25.017Z,99318.06
2022-10-09T04:46:29.121Z,99319.72
2022-10-09T04:47:32.027Z,99321.50
2022-10-09T04:48:39.767Z,99315.44
2022-10-09T04:49:42.878Z,99323.34
2022-10-09T04:50:48.464Z,99325.13
2022-10-09T04:51:51.442Z,99323.59
2022-10-09T04:52:55.324Z,99327.22
2022-10-09T04:54:00.562Z,99325.06
2022-10-09T04:55:05.011Z,99328.09
2022-10-09T04:56:09.776Z,99328.28
2022-10-09T04:57:13.803Z,99329.69
2022-10-09T04:58:16.759Z,99333.41
2022-10-09T04:59:20.726Z,99336.44
2022-10-09T05:00:23.912Z,99335.94
2022-10-09T05:01:31.073Z,99331.97
2022-10-09T05:02:37.248Z,99341.03
2022-10-09T05:03:41.496Z,99336.25
2022-10-09T05:04:44.597Z,99346.22
2022-10-09T05:05:50.238Z,99350.91
2022-10-09T05:06:53.204Z,99351.31
2022-10-09T05:07:57.144Z,99350.91
2022-10-09T05:09:00.086Z,99346.09
2022-10-09T05:10:04.176Z,99351.72
2022-10-09T05:11:08.657Z,99343.47
2022-10-09T05:12:12.635Z,99352.59
2022-10-09T05:13:15.608Z,99354.00
2022-10-09T05:14:19.638Z,99347.31
2022-10-09T05:15:22.807Z,99355.53
2022-10-09T05:16:28.338Z,99353.22
2022-10-09T05:17:31.539Z,99358.75
2022-10-09T05:18:35.635Z,99353.84
2022-10-09T05:19:39.077Z,99349.88
2022-10-09T05:20:43.096Z,99357.13
2022-10-09T05:21:47.626Z,99358.25
2022-10-09T05:22:52.216Z,99355.94
2022-10-09T05:23:56.092Z,99353.44
2022-10-09T05:25:00.605Z,99361.31
2022-10-09T05:26:05.902Z,99361.22
2022-10-09T05:27:09.864Z,99362.91
2022-10-09T05:28:12.868Z,99355.81
2022-10-09T05:29:16.856Z,99355.63
2022-10-09T05:30:19.833Z,99356.91
2022-10-09T05:31:25.273Z,99359.94
2022-10-09T05:32:28.296Z,99363.94
2022-10-09T05:33:32.404Z,99358.44
2022-10-09T05:34:36.865Z,99354.69
2022-10-09T05:35:39.764Z,99356.72
2022-10-09T05:36:43.848Z,99363.75
2022-10-09T05:37:48.260Z,99362.13
2022-10-09T05:38:52.387Z,99366.41
2022-10-09T05:39:55.336Z,99363.03
2022-10-09T05:41:00.575Z,99366.75
2022-10-09T05:42:03.788Z,99366.16
2022-10-09T05:43:07.796Z,99367.59
2022-10-09T05:44:12.442Z,99374.28
2022-10-09T05:45:15.717Z,99373.84
2022-10-09T05:46:21.169Z,99367.47
2022-10-09T05:47:24.266Z,99379.31
2022-10-09T05:48:28.247Z,99372.72
2022-10-09T05:49:32.296Z,99379.81
2022-10-09T05:50:35.306Z,99380.03
2022-10-09T05:51:42.885Z,99383.59
2022-10-09T05:52:47.558Z,99381.03
2022-10-09T05:53:52.471Z,99381.63
2022-10-09T05:54:57.337Z,99382.81
2022-10-09T05:56:11.795Z,99391.47
2022-10-09T05:57:14.656Z,99387.50
2022-10-09T05:58:18.625Z,99392.06
2022-10-09T05:59:21.752Z,99392.13
2022-10-09T06:00:25.765Z,99386.78
2022-10-09T06:01:30.704Z,99397.84
2022-10-09T06:02:35.092Z,99396.41
2022-10-09T06:03:38.765Z,99393.31
2022-10-09T06:04:42.715Z,99392.72
2022-10-09T06:05:46.439Z,99398.19
2022-10-09T06:06:51.149Z,99405.41
2022-10-09T06:07:55.498Z,99406.59
2022-10-09T06:09:00.147Z,99408.50
2022-10-09T06:10:03.168Z,99408.72
2022-10-09T06:11:11.457Z,99408.97
2022-10-09T06:12:15.430Z,99410.84
2022-10-09T06:13:18.398Z,99420.25
2022-10-09T06:14:22.804Z,99412.28
2022-10-09T06:15:25.755Z,99416.47
2022-10-09T06:16:31.342Z,99421.69
2022-10-09T06:17:34.443Z,99423.56
2022-10-09T06:18:38.648Z,99422.13
2022-10-09T06:19:41.572Z,99425.81
2022-10-09T06:20:54.854Z,99413.72
2022-10-09T06:21:58.838Z,99420.59
2022-10-09T06:23:03.250Z,99418.59
2022-10-09T06:24:07.547Z,99427.00
2022-10-09T06:25:10.689Z,99434.63
2022-10-09T06:26:15.246Z,99426.59
2022-10-09T06:27:18.264Z,99429.91
2022-10-09T06:28:22.640Z,99433.97
2022-10-09T06:29:25.787Z,99427.56
2022-10-09T06:30:31.205Z,99430.53
2022-10-09T06:31:37.339Z,99435.50
2022-10-09T06:32:41.258Z,99434.47
2022-10-09T06:33:45.258Z,99432.53
2022-10-09T06:34:49.257Z,99428.06
2022-10-09T06:35:52.360Z,99426.25
2022-10-09T06:36:56.381Z,99432.31
2022-10-09T06:37:59.348Z,99442.06
2022-10-09T06:39:07.057Z,99438.84
2022-10-09T06:40:10.709Z,99447.66
2022-10-09T06:41:16.394Z,99444.91
2022-10-09T06:42:19.311Z,99447.41
2022-10-09T06:43:32.903Z,99444.56
2022-10-09T06:44:36.946Z,99440.88
2022-10-09T06:45:39.926Z,99453.13
2022-10-09T06:46:44.906Z,99451.72
2022-10-09T06:47:47.806Z,99451.84
2022-10-09T06:48:51.848Z,99455.78
2022-10-09T06:49:54.916Z,99458.97
2022-10-09T06:51:02.457Z,99458.97
2022-10-09T06:52:06.448Z,99451.94
2022-10-09T06:53:09.389Z,99466.59
2022-10-09T06:54:16.737Z,99454.72
2022-10-09T06:55:19.799Z,99457.59
2022-10-09T06:56:24.995Z,99465.56
2022-10-09T06:57:27.986Z,99459.22
2022-10-09T06:58:32.015Z,99464.31
2022-10-09T06:59:36.059Z,99461.81
2022-10-09T07:00:39.074Z,99461.78
2022-10-09T07:01:43.201Z,99465.19
2022-10-09T07:02:46.403Z,99472.44
2022-10-09T07:03:54.606Z,99459.06
2022-10-09T07:04:58.600Z,99470.38
2022-10-09T07:06:12.279Z,99460.31
2022-10-09T07:07:16.268Z,99474.00
2022-10-09T07:08:19.173Z,99470.47
2022-10-09T07:09:24.571Z,99472.97
2022-10-09T07:10:28.127Z,99474.66
2022-10-09T07:11:34.435Z,99473.88
2022-10-09T07:12:37.822Z,99475.66
2022-10-09T07:13:42.284Z,99474.38
2022-10-09T07:14:45.157Z,99469.22
2022-10-09T07:15:49.174Z,99474.94
2022-10-09T07:16:53.605Z,99477.53
2022-10-09T07:17:56.512Z,99482.28
2022-10-09T07:19:03.820Z,99480.25
2022-10-09T07:20:07.195Z,99483.41
2022-10-09T07:21:11.756Z,99480.75
2022-10-09T07:22:14.672Z,99481.41
2022-10-09T07:23:18.709Z,99483.88
2022-10-09T07:24:25.611Z,99485.69
2022-10-09T07:25:28.494Z,99475.47
2022-10-09T07:26:34.170Z,99488.69
2022-10-09T07:27:37.274Z,99486.88
2022-10-09T07:28:41.891Z,99486.53
2022-10-09T07:29:44.915Z,99486.56
2022-10-09T07:30:48.899Z,99482.69
2022-10-09T07:31:51.905Z,99484.88
2022-10-09T07:32:55.814Z,99491.50
2022-10-09T07:33:59.875Z,99487.59
2022-10-09T07:35:03.876Z,99494.22
2022-10-09T07:36:07.255Z,99496.16
2022-10-09T07:37:11.212Z,99496.41
2022-10-09T07:38:14.066Z,99499.31
2022-10-09T07:39:19.415Z,99496.94
2022-10-09T07:40:26.018Z,99506.31
2022-10-09T07:41:30.826Z,99492.75
2022-10-09T07:42:33.783Z,99505.41
2022-10-09T07:43:38.438Z,99503.28
2022-10-09T07:44:41.360Z,99508.34
2022-10-09T07:45:45.452Z,99503.63
2022-10-09T07:46:50.266Z,99511.28
2022-10-09T07:47:54.486Z,99508.66
2022-10-09T07:48:57.428Z,99507.47
2022-10-09T07:50:01.411Z,99502.53
2022-10-09T07:51:09.076Z,99504.91
2022-10-09T07:52:13.388Z,99493.19
2022-10-09T07:53:16.645Z,99499.44
2022-10-09T07:54:20.659Z,99499.06
2022-10-09T07:55:25.264Z,99511.56
2022-10-09T07:56:30.734Z,99504.56
2022-10-09T07:57:34.726Z,99497.13
2022-10-09T07:58:37.641Z,99500.81
2022-10-09T07:59:41.776Z,99499.69
2022-10-09T08:00:45.579Z,99506.53
2022-10-09T08:01:49.769Z,99499.06
2022-10-09T08:02:53.306Z,99507.91
2022-10-09T08:04:00.828Z,99510.66
2022-10-09T08:05:05.384Z,99508.97
2022-10-09T08:06:09.688Z,99516.41
2022-10-09T08:07:13.688Z,99514.44
2022-10-09T08:08:16.706Z,99515.53
2022-10-09T08:09:21.130Z,99514.44
2022-10-09T08:10:25.496Z,99510.16
2022-10-09T08:11:30.994Z,99508.50
2022-10-09T08:12:33.935Z,99519.81
2022-10-09T08:13:37.964Z,99512.19
2022-10-09T08:14:40.925Z,99511.22
2022-10-09T08:15:46.292Z,99512.47
2022-10-09T08:16:50.333Z,99512.13
2022-10-09T08:17:53.494Z,99516.19
2022-10-09T08:18:58.894Z,99518.09
2022-10-09T08:20:01.796Z,99512.97
2022-10-09T08:21:07.261Z,99512.28
2022-10-09T08:22:11.875Z,99516.81
2022-10-09T08:23:15.817Z,99514.19
2022-10-09T08:24:19.863Z,99513.94
2022-10-09T08:25:24.343Z,99515.00
2022-10-09T08:26:29.738Z,99513.16
2022-10-09T08:27:32.664Z,99513.09
2022-10-09T08:28:36.852Z,99515.13
2022-10-09T08:29:40.974Z,99517.41
2022-10-09T08:30:44.044Z,99517.75
2022-10-09T08:31:48.233Z,99513.38
2022-10-09T08:32:53.107Z,99525.28
2022-10-09T08:33:57.848Z,99523.63
2022-10-09T08:35:01.967Z,99523.88
2022-10-09T08:36:08.033Z,99527.03
2022-10-09T08:37:11.985Z,99522.31
2022-10-09T08:38:37.585Z,99520.63
2022-10-09T08:39:38.826Z,99524.84
2022-10-09T08:40:47.177Z,99518.91
2022-10-09T08:41:53.164Z,99522.59
2022-10-09T08:42:59.628Z,99519.88
2022-10-09T08:44:05.364Z,99526.78
2022-10-09T08:45:13.073Z,99527.22
2022-10-09T08:46:21.165Z,99525.28
2022-10-09T08:47:29.834Z,99526.00
2022-10-09T08:48:36.422Z,99530.16
2022-10-09T08:49:45.277Z,99525.03
2022-10-09T08:50:50.749Z,99534.50
2022-10-09T08:51:56.326Z,99536.25
2022-10-09T08:53:06.665Z,99535.50
2022-10-09T08:54:14.451Z,99530.56
2022-10-09T08:55:21.824Z,99533.09
2022-10-09T08:56:27.158Z,99523.94
2022-10-09T08:57:32.917Z,99529.94
2022-10-09T08:58:37.492Z,99534.75
2022-10-09T08:59:41.676Z,99532.94
2022-10-09T09:00:46.484Z,99526.28
2022-10-09T09:01:58.416Z,99528.28
2022-10-09T09:03:30.472Z,99535.63
2022-10-09T09:04:52.386Z,99537.34
2022-10-09T09:06:06.585Z,99532.97
2022-10-09T09:07:16.093Z,99529.69
2022-10-09T09:08:26.313Z,99534.41
2022-10-09T09:09:38.779Z,99539.13
2022-10-09T09:10:45.054Z,99543.47
2022-10-09T09:11:53.396Z,99535.69
2022-10-09T09:13:01.384Z,99535.56
2022-10-09T09:14:13.447Z,99532.50
2022-10-09T09:15:29.947Z,99538.41
2022-10-09T09:16:40.666Z,99543.19
2022-10-09T09:17:49.839Z,99539.38
2022-10-09T09:19:03.508Z,99540.00
2022-10-09T09:20:14.560Z,99542.25
2022-10-09T09:21:26.838Z,99530.38
2022-10-09T09:22:31.613Z,99535.47
2022-10-09T09:23:42.086Z,99532.31
2022-10-09T09:24:49.024Z,99541.78
2022-10-09T09:25:53.035Z,99537.41
2022-10-09T09:27:01.895Z,99542.44
2022-10-09T09:28:15.226Z,99534.47
2022-10-09T09:29:21.608Z,99539.91
2022-10-09T09:30:28.496Z,99542.69
2022-10-09T09:31:36.847Z,99538.59
2022-10-09T09:32:45.235Z,99537.34
2022-10-09T09:33:53.087Z,99538.06
2022-10-09T09:35:04.714Z,99537.66
2022-10-09T09:36:10.844Z,99532.41
2022-10-09T09:37:15.306Z,99522.00
2022-10-09T09:38:19.411Z,99535.28
2022-10-09T09:40:48.078Z,99531.72
2022-10-09T09:41:51.017Z,99532.13
2022-10-09T09:42:57.917Z,99532.41
2022-10-09T09:44:02.897Z,99537.97
2022-10-09T09:45:09.887Z,99533.00
2022-10-09T09:46:16.325Z,99528.31
2022-10-09T09:47:25.836Z,99530.06
2022-10-09T09:48:35.892Z,99522.03
2022-10-09T09:49:39.159Z,99520.09
2022-10-09T09:51:04.996Z,99528.41
2022-10-09T09:52:09.245Z,99522.59
2022-10-09T09:53:17.601Z,99525.66
2022-10-09T09:54:22.706Z,99523.97
2022-10-09T09:55:29.627Z,99528.16
2022-10-09T09:57:06.870Z,99535.22
2022-10-09T09:58:07.803Z,99526.50
2022-10-09T09:59:27.325Z,99526.34
2022-10-09T10:00:31.495Z,99533.00
2022-10-09T10:01:35.606Z,99534.91
2022-10-09T10:02:39.574Z,99528.84
2022-10-09T10:03:50.274Z,99528.94
2022-10-09T10:04:56.750Z,99530.22
2022-10-09T10:05:59.737Z,99532.41
2022-10-09T10:07:03.977Z,99528.50
2022-10-09T10:08:23.426Z,99531.56
2022-10-09T10:09:27.289Z,99534.31
2022-10-09T10:10:31.487Z,99528.78
2022-10-09T10:11:35.914Z,99527.69
2022-10-09T10:12:43.126Z,99529.91
2022-10-09T10:13:50.430Z,99523.16
2022-10-09T10:14:53.562Z,99528.53
2022-10-09T10:15:59.006Z,99531.88
2022-10-09T10:17:02.269Z,99527.72
2022-10-09T10:18:07.689Z,99522.34
2022-10-09T10:19:21.231Z,99522.91
2022-10-09T10:20:25.505Z,99523.00
2022-10-09T10:21:29.536Z,99526.88
2022-10-09T10:22:32.977Z,99524.66
2022-10-09T10:23:39.513Z,99524.81
2022-10-09T10:24:44.228Z,99524.41
2022-10-09T10:25:48.234Z,99528.97
2022-10-09T10:26:53.706Z,99528.44
2022-10-09T10:28:01.568Z,99532.13
2022-10-09T10:29:12.389Z,99528.22
2022-10-09T10:30:18.636Z,99532.75
2022-10-09T10:31:34.346Z,99527.63
2022-10-09T10:32:48.336Z,99522.81
2022-10-09T10:33:54.284Z,99533.91
2022-10-09T10:35:02.128Z,99525.06
2022-10-09T10:36:06.575Z,99526.63
2022-10-09T10:37:26.645Z,99527.72
2022-10-09T10:38:34.187Z,99524.00
2022-10-09T10:39:40.930Z,99525.53
2022-10-09T10:40:48.026Z,99518.31
2022-10-09T10:41:52.352Z,99522.31
2022-10-09T10:43:05.694Z,99522.56
2022-10-09T10:44:18.483Z,99517.38
2022-10-09T10:45:26.719Z,99537.72
2022-10-09T10:46:33.683Z,99529.09
2022-10-09T10:47:39.304Z,99527.91
2022-10-09T10:48:46.837Z,99519.69
2022-10-09T10:49:50.330Z,99527.94
2022-10-09T10:51:04.345Z,99525.16
2022-10-09T10:52:18.227Z,99516.03
2022-10-09T10:53:27.832Z,99526.28
2022-10-09T10:54:37.274Z,99525.72
2022-10-09T10:55:55.372Z,99523.16
2022-10-09T10:57:12.334Z,99527.81
2022-10-09T10:58:26.234Z,99522.91
2022-10-09T10:59:38.021Z,99530.19
2022-10-09T11:00:48.512Z,99525.16
2022-10-09T11:01:55.955Z,99523.06
2022-10-09T11:03:24.836Z,99521.72
2022-10-09T11:04:43.497Z,99524.53
2022-10-09T11:05:49.946Z,99519.41
2022-10-09T11:06:58.881Z,99524.72
2022-10-09T11:08:10.404Z,99527.34
2022-10-09T11:09:17.339Z,99523.88
2022-10-09T11:10:23.885Z,99521.06
2022-10-09T11:11:33.754Z,99524.53
2022-10-09T11:12:57.809Z,99525.56
2022-10-09T11:14:16.580Z,99524.56
2022-10-09T11:15:34.508Z,99522.97
2022-10-09T11:16:47.679Z,99510.75
2022-10-09T11:17:56.563Z,99516.03
2022-10-09T11:19:09.385Z,99519.63
2022-10-09T11:20:26.241Z,99515.69
2022-10-09T11:21:41.115Z,99519.53
2022-10-09T11:23:04.638Z,99524.97
2022-10-09T11:24:27.369Z,99530.22
2022-10-09T11:25:33.844Z,99522.63
2022-10-09T11:26:44.430Z,99518.00
2022-10-09T11:27:50.624Z,99515.88
2022-10-09T11:28:59.205Z,99514.06
2022-10-09T11:30:04.598Z,99515.22
2022-10-09T11:31:14.302Z,99518.56
2022-10-09T11:32:21.245Z,99518.16
2022-10-09T11:33:30.493Z,99508.59
2022-10-09T11:34:37.035Z,99512.97
2022-10-09T11:35:44.088Z,99510.34
2022-10-09T11:36:47.279Z,99519.97
2022-10-09T11:37:59.597Z,99517.66
2022-10-09T11:39:05.444Z,99514.50
2022-10-09T11:40:15.509Z,99515.97
2022-10-09T11:41:20.329Z,99515.34
2022-10-09T11:42:24.919Z,99512.00
2022-10-09T11:43:42.787Z,99511.84
2022-10-09T11:44:51.357Z,99509.84
2022-10-09T11:45:59.201Z,99505.03
2022-10-09T11:47:10.547Z,99499.03
2022-10-09T11:48:18.448Z,99497.38
2022-10-09T11:49:26.818Z,99499.69
2022-10-09T11:50:45.167Z,99500.81
2022-10-09T11:51:55.138Z,99497.97
2022-10-09T11:53:00.426Z,99504.84
2022-10-09T11:54:05.787Z,99497.66
2022-10-09T11:55:17.504Z,99501.88
2022-10-09T11:56:23.746Z,99499.59
2022-10-09T11:57:30.433Z,99508.88
2022-10-09T11:58:34.737Z,99502.19
2022-10-09T11:59:42.276Z,99496.63
2022-10-09T12:00:47.656Z,99494.50
2022-10-09T12:01:50.708Z,99505.59
2022-10-09T12:03:00.720Z,99494.28
2022-10-09T12:04:06.438Z,99495.88
2022-10-09T12:05:21.237Z,99498.78
2022-10-09T12:06:24.237Z,99498.66
2022-10-09T12:07:34.176Z,99491.97
2022-10-09T12:08:38.145Z,99490.75
2022-10-09T12:09:44.471Z,99495.25
2022-10-09T12:10:51.712Z,99491.38
2022-10-09T12:12:01.686Z,99492.47
2022-10-09T12:13:08.008Z,99490.19
2022-10-09T12:14:16.086Z,99491.97
2022-10-09T12:15:27.371Z,99488.88
2022-10-09T12:16:43.209Z,99485.56
2022-10-09T12:17:48.882Z,99488.19
2022-10-09T12:18:56.757Z,99480.53
2022-10-09T12:20:06.796Z,99480.63
2022-10-09T12:21:20.474Z,99469.09
2022-10-09T12:22:28.897Z,99475.00
2022-10-09T12:23:34.553Z,99475.53
2022-10-09T12:24:41.286Z,99477.94
2022-10-09T12:25:45.738Z,99472.44
2022-10-09T12:26:50.623Z,99469.47
2022-10-09T12:27:54.424Z,99469.69
2022-10-09T12:29:02.742Z,99465.13
2022-10-09T12:30:20.954Z,99468.28
2022-10-09T12:31:27.296Z,99473.25
2022-10-09T12:32:33.238Z,99475.84
2022-10-09T12:33:38.627Z,99467.59
2022-10-09T12:34:47.685Z,99467.19
2022-10-09T12:35:59.835Z,99471.34
2022-10-09T12:37:12.906Z,99473.53
2022-10-09T12:38:17.772Z,99468.56
2022-10-09T12:39:23.553Z,99473.88
2022-10-09T12:40:27.970Z,99474.63
2022-10-09T12:41:34.155Z,99476.75
2022-10-09T12:42:38.277Z,99477.75
2022-10-09T12:43:45.026Z,99473.06
2022-10-09T12:44:50.929Z,99470.88
2022-10-09T12:45:54.652Z,99470.50
2022-10-09T12:47:02.826Z,99470.81
2022-10-09T12:48:10.785Z,99465.34
2022-10-09T12:49:20.931Z,99468.47
2022-10-09T12:50:28.472Z,99475.44
2022-10-09T12:51:33.430Z,99470.41
2022-10-09T12:52:37.445Z,99476.75
2022-10-09T12:53:47.675Z,99469.84
2022-10-09T12:54:51.923Z,99472.25
2022-10-09T12:55:59.466Z,99477.00
2022-10-09T12:57:03.853Z,99475.97
2022-10-09T12:58:09.616Z,99472.72
2022-10-09T12:59:14.485Z,99473.47
2022-10-09T13:00:17.679Z,99476.63